Date,TemperatureHighF,TemperatureAvgF,TemperatureLowF,DewpointHighF,DewpointAvgF,DewpointLowF,HumidityHigh,HumidityAvg,HumidityLow,PressureMaxIn,PressureMinIn,WindSpeedMaxMPH,WindSpeedAvgMPH,GustSpeedMaxMPH,PrecipitationSumIn
2012-7-29,96.3,83.7,73.9,79.7,74.4,67.1,96,76,49,30.14,30.05,0,0,0,0.34
2012-7-30,85.9,77.7,73.2,77.3,74.1,70.8,97,89,71,30.12,30.05,0,0,0,0.15
2012-7-31,90.7,77.0,70.3,77.6,72.4,68.1,98,87,56,30.13,30.04,0,0,0,0.40
2012-8-1,89.7,80.3,74.4,77.5,74.4,71.8,97,83,58,30.09,30.00,0,0,0,0.07
2012-8-2,94.9,80.9,72.3,77.4,73.3,67.8,97,80,49,30.12,30.00,0,0,0,0.06
2012-8-3,91.6,79.4,69.9,78.1,73.4,68.7,97,83,57,30.22,30.11,0,0,0,1.05
2012-8-4,91.0,81.1,72.7,77.1,73.6,70.5,97,80,58,30.34,30.20,0,0,0,0.00
2012-8-5,91.0,79.0,74.6,77.5,74.9,73.6,97,88,58,30.35,30.25,0,0,0,0.76
2012-8-6,90.1,78.0,72.8,78.8,75.2,72.2,98,92,64,30.31,30.18,0,0,0,1.06
2012-8-7,84.7,77.9,74.2,79.6,75.5,72.6,98,92,80,30.21,30.12,0,0,0,0.51
2012-8-8,86.7,77.7,73.7,77.2,73.9,71.3,97,89,68,30.19,30.10,0,0,0,0.07
2012-8-9,92.1,80.5,72.0,76.7,73.4,70.6,98,81,52,30.16,30.02,0,0,0,0.05
2012-8-10,88.8,79.5,72.7,78.3,73.9,70.6,95,84,61,30.09,30.01,0,0,0,0.24
2012-8-11,90.5,78.1,71.6,75.2,72.4,69.2,96,85,56,30.12,30.03,0,0,0,0.84
2012-8-12,86.3,77.4,73.5,76.6,74.1,72.0,98,90,68,30.16,30.08,0,0,0,0.00
2012-8-13,92.1,82.3,73.5,76.4,71.3,62.3,98,73,41,30.20,30.10,0,0,0,0.00
2012-8-14,94.3,83.5,73.9,75.4,72.3,66.8,95,71,44,30.16,30.04,0,0,0,0.00
2012-8-15,91.6,83.3,76.0,77.5,74.3,70.1,92,76,53,30.13,30.05,0,0,0,0.00
2012-8-16,92.7,80.9,74.2,77.3,72.0,67.1,94,76,45,30.18,30.09,0,0,0,0.00
2012-8-17,92.3,78.0,70.1,76.9,71.2,66.2,97,81,54,30.16,29.99,0,0,0,0.50
2012-8-18,90.3,80.0,70.9,76.9,72.7,67.1,98,80,52,30.05,29.96,0,0,0,0.00
2012-8-19,86.7,79.6,72.8,77.3,74.7,70.5,95,85,67,30.08,29.99,0,0,0,0.29
2012-8-20,87.8,78.2,73.9,75.3,72.8,69.0,95,84,58,30.12,30.00,0,0,0,0.03
2012-8-21,85.1,77.9,72.8,74.1,72.1,69.7,96,83,64,30.18,30.08,0,0,0,0.04
2012-8-22,88.0,77.0,71.1,74.9,71.1,68.3,97,83,55,30.23,30.15,0,0,0,0.20
2012-8-23,85.5,74.6,70.6,74.8,71.0,68.7,96,89,63,30.26,30.19,0,0,0,0.03
2012-8-24,83.6,74.7,68.9,71.9,68.7,64.8,97,83,58,30.26,30.19,0,0,0,0.10
2012-8-25,85.9,74.3,64.2,66.4,64.1,60.8,97,74,45,30.29,30.22,0,0,0,0.00
2012-8-26,90.3,75.5,65.8,71.5,66.1,63.8,96,75,46,30.32,30.19,4,0,4,0.00
2012-8-27,88.2,79.4,74.2,80.4,75.0,71.5,97,87,67,30.23,30.15,9,0,10,0.11
2012-8-28,78.3,76.2,74.4,76.1,74.7,73.0,98,95,87,30.19,30.10,5,0,5,2.14
2012-8-29,89.7,78.8,71.8,77.2,74.2,70.3,97,87,64,30.22,30.08,9,0,10,0.51
2012-8-30,83.6,76.5,71.6,75.8,73.1,70.6,98,90,72,30.31,30.11,4,0,4,0.24
2012-8-31,92.5,80.2,71.1,77.2,73.6,70.2,98,82,55,30.39,30.28,5,0,7,0.00
2012-9-1,94.7,83.0,74.4,77.1,74.5,70.2,97,78,48,30.33,30.19,5,0,5,0.00
2012-9-2,95.1,84.1,75.8,76.9,75.0,71.3,93,76,49,30.22,30.09,5,0,6,0.00
2012-9-3,92.1,82.2,75.4,77.0,74.3,70.2,95,78,55,30.20,30.12,9,0,10,0.00
2012-9-4,90.3,80.9,72.5,74.9,72.7,70.4,95,77,58,30.17,30.08,11,1,13,0.00
2012-9-5,91.4,82.2,75.6,76.1,74.0,70.7,94,78,54,30.14,30.05,7,0,9,0.00
2012-9-6,91.4,81.9,73.3,75.6,73.4,69.5,97,78,51,30.15,30.05,7,0,10,0.00
2012-9-7,92.9,79.7,75.1,76.9,74.1,70.2,95,84,49,30.11,30.01,5,0,6,1.00
2012-9-8,89.0,80.3,75.3,77.6,75.1,73.7,97,85,64,30.02,29.90,11,0,11,0.12
2012-9-9,81.8,75.8,68.1,74.0,70.0,64.9,94,83,64,30.12,29.92,7,0,8,0.00
2012-9-10,85.3,71.9,59.3,65.1,60.0,52.3,97,71,35,30.29,30.12,6,0,9,0.00
2012-9-11,84.9,71.3,58.9,62.1,57.9,52.5,97,68,34,30.42,30.28,9,0,11,0.00
2012-9-12,84.9,71.3,60.7,63.9,59.2,53.5,92,68,40,30.47,30.38,11,0,11,0.00
2012-9-13,85.9,74.0,65.6,68.0,64.6,60.5,92,74,44,30.42,30.33,6,0,11,0.00
2012-9-14,88.4,74.5,65.5,70.8,66.1,63.4,94,77,49,30.36,30.27,4,0,6,0.00
2012-9-15,89.3,74.6,64.2,70.2,66.5,62.4,98,79,45,30.32,30.23,6,0,9,0.00
2012-9-16,89.5,76.1,66.0,72.5,68.0,63.7,98,79,47,30.28,30.18,5,0,7,0.00
2012-9-17,88.6,76.3,65.5,74.4,69.0,64.6,98,80,52,30.23,30.09,8,1,12,0.01
2012-9-18,85.3,79.2,73.9,77.2,72.3,67.3,95,80,64,30.09,29.89,16,1,18,0.36
2012-9-19,81.4,73.8,67.4,71.6,68.0,60.7,94,82,65,30.24,29.99,10,0,11,0.00
2012-9-20,81.4,71.2,64.0,68.1,64.2,60.7,94,79,60,30.29,30.19,5,0,6,0.00
2012-9-21,86.3,73.0,61.8,67.1,63.5,58.4,97,75,42,30.24,30.16,6,0,6,0.00
2012-9-22,89.0,74.2,63.9,69.3,65.9,62.7,97,78,46,30.21,30.11,7,0,11,0.00
2012-9-23,83.4,73.7,60.2,69.4,64.3,55.8,95,75,42,30.24,30.13,6,0,9,0.00
2012-9-24,82.6,66.6,53.5,65.0,56.6,52.7,98,74,38,30.34,30.22,9,0,10,0.00
2012-9-25,83.0,67.2,52.6,63.0,57.6,51.7,98,75,43,30.39,30.32,7,0,7,0.00
2012-9-26,88.8,71.7,59.2,70.6,64.6,58.3,98,80,52,30.38,30.30,4,0,6,0.01
2012-9-27,88.8,73.5,62.9,68.9,64.6,61.4,98,77,42,30.36,30.24,7,0,9,0.00
2012-9-28,87.8,74.3,63.2,69.8,66.3,61.5,98,79,44,30.28,30.15,5,0,5,0.00
2012-9-29,85.7,74.4,66.3,70.7,67.7,65.0,98,81,55,30.18,30.01,4,0,6,0.04
2012-9-30,77.4,72.0,68.3,71.9,69.1,66.3,96,90,79,30.05,29.98,4,0,5,0.17
2012-10-1,88.4,78.1,69.8,77.9,73.2,69.2,98,86,61,30.01,29.91,10,0,10,0.20
2012-10-2,88.0,80.6,76.1,76.7,75.0,72.3,95,84,63,30.14,29.90,12,0,12,0.08
2012-10-3,85.1,78.4,73.3,75.7,71.1,67.3,94,79,58,30.36,30.14,4,0,6,0.01
2012-10-4,81.6,75.1,69.9,72.1,70.4,68.4,97,86,69,30.39,30.31,5,0,6,0.01
2012-10-5,86.5,74.3,67.6,70.3,67.1,61.8,98,81,46,30.35,30.18,5,0,6,0.00
2012-10-6,86.7,74.3,64.8,70.5,67.8,63.9,98,82,55,30.19,30.04,6,0,6,0.00
2012-10-7,88.4,75.9,66.6,73.1,69.4,64.6,98,83,48,30.18,30.07,6,0,7,0.01
2012-10-8,69.4,60.2,53.8,64.7,57.5,52.1,97,91,81,30.26,30.17,7,0,10,1.02
2012-10-9,65.5,56.4,49.8,55.4,52.8,48.7,97,88,66,30.31,30.23,9,0,10,0.00
2012-10-10,76.0,59.5,46.4,61.5,54.3,45.9,99,85,52,30.31,30.18,7,0,9,0.00
2012-10-11,75.8,62.2,53.8,56.8,53.4,48.2,98,76,43,30.44,30.28,7,0,9,0.01
2012-10-12,80.5,64.3,50.5,60.5,55.5,49.9,98,77,43,30.42,30.30,4,0,5,0.00
2012-10-13,73.7,64.1,57.0,61.3,56.5,53.0,93,77,59,30.52,30.41,7,0,10,0.00
2012-10-14,84.7,67.3,54.1,65.1,58.2,52.5,96,76,45,30.46,30.21,6,0,7,0.00
2012-10-15,82.2,70.1,60.7,70.8,65.0,59.8,98,85,63,30.22,29.92,6,0,7,0.00
2012-10-16,73.5,62.6,52.9,60.7,49.6,44.8,93,66,37,30.13,29.99,7,0,7,0.00
2012-10-17,73.3,61.1,51.6,59.7,55.2,50.2,97,83,58,30.17,30.06,4,0,4,0.01
2012-10-18,81.6,68.9,56.2,69.0,63.8,55.2,98,85,59,30.08,29.95,7,0,9,0.01
2012-10-19,79.2,70.7,58.7,69.5,55.2,41.4,93,63,27,30.01,29.89,11,0,12,0.00
2012-10-20,76.8,63.3,52.2,56.1,48.7,41.6,93,63,32,30.10,29.97,9,0,10,0.00
2012-10-21,74.4,60.3,49.9,52.2,48.0,44.1,93,67,38,30.31,30.10,6,0,7,0.00
2012-10-22,76.8,58.7,44.3,51.5,47.4,43.5,98,72,33,30.39,30.29,5,0,7,0.00
2012-10-23,81.6,62.4,47.1,62.1,55.0,46.2,98,80,46,30.36,30.26,5,0,6,0.00
2012-10-24,83.8,67.4,55.9,66.6,60.7,55.2,98,82,51,30.34,30.23,7,0,7,0.01
2012-10-25,82.6,71.8,61.2,68.6,65.1,59.9,98,81,55,30.26,30.17,11,0,12,0.00
2012-10-26,79.9,70.6,65.2,66.6,63.2,60.8,95,79,56,30.17,29.93,11,1,15,0.01
2012-10-27,68.4,66.9,65.2,63.9,61.5,55.9,94,83,72,29.93,29.69,15,2,16,0.21
2012-10-28,71.5,64.3,56.7,56.2,53.6,50.3,91,69,52,29.77,29.70,14,2,17,0.00
2012-10-29,63.7,56.3,48.0,50.6,39.0,33.6,69,53,38,29.83,29.68,13,2,15,0.00
2012-10-30,58.7,50.5,44.8,36.8,32.5,28.4,65,51,32,29.90,29.70,15,1,16,0.00
2012-10-31,66.0,52.6,42.6,36.3,29.4,22.0,61,43,19,30.00,29.89,11,1,14,0.00
2012-11-1,65.0,51.7,43.5,35.3,30.9,23.7,69,48,21,30.10,29.96,13,1,13,0.00
2012-11-2,74.6,55.9,37.8,46.4,36.4,27.6,75,51,27,30.16,30.00,10,0,10,0.00
2012-11-3,73.3,56.4,40.8,49.7,42.6,34.6,95,65,27,30.28,30.09,4,0,6,0.00
2012-11-4,83.4,66.8,52.5,62.1,57.2,49.7,97,75,38,30.20,30.04,8,0,15,0.22
2012-11-5,65.0,55.3,46.8,59.0,46.7,40.0,96,76,42,30.22,30.06,7,0,9,0.00
2012-11-6,54.1,48.1,41.5,44.5,41.4,37.0,89,78,61,30.20,30.04,10,0,10,0.02
2012-11-7,56.2,45.3,38.5,41.5,38.3,36.4,94,78,51,30.14,30.00,7,0,9,0.00
2012-11-8,64.2,48.1,37.3,44.0,36.7,27.2,96,70,26,30.30,30.13,7,0,10,0.01
2012-11-9,68.3,49.3,33.2,42.4,35.2,27.0,97,66,22,30.45,30.30,4,0,6,0.00
2012-11-10,74.2,52.1,36.0,49.7,39.8,34.2,98,70,27,30.55,30.44,6,0,6,0.00
2012-11-11,78.5,60.9,43.8,61.5,53.8,41.6,97,80,49,30.60,30.52,9,0,11,0.00
2012-11-12,80.5,67.2,56.2,66.0,60.9,55.7,98,82,51,30.52,30.35,9,0,11,0.02
2012-11-13,76.7,62.2,51.4,64.3,57.6,49.3,97,86,64,30.46,30.31,8,0,11,0.04
2012-11-14,52.5,49.6,46.5,49.3,44.0,40.5,93,81,73,30.55,30.42,9,0,11,0.00
2012-11-15,50.5,46.7,43.6,49.1,45.3,41.6,97,95,84,30.44,30.33,10,0,11,0.80
2012-11-16,54.8,49.8,45.7,49.7,46.2,43.3,97,88,74,30.47,30.38,11,0,11,0.01
2012-11-17,56.3,49.9,41.6,46.5,42.6,35.9,85,76,64,30.52,30.45,11,0,14,0.00
2012-11-18,53.2,51.4,48.6,50.8,49.0,43.9,96,92,73,30.47,30.33,10,2,12,0.57
2012-11-19,61.3,55.8,51.9,52.7,50.7,49.0,96,83,72,30.37,30.26,10,1,11,0.01
2012-11-20,63.4,52.5,44.6,51.3,47.7,43.2,96,84,63,30.31,30.19,6,0,7,0.00
2012-11-21,62.6,50.3,39.8,49.4,42.2,38.0,98,76,45,30.30,30.22,9,0,13,0.00
2012-11-22,63.2,49.3,36.8,38.9,34.4,25.4,93,61,25,30.38,30.28,11,0,15,0.00
2012-11-23,70.3,50.2,31.9,47.2,39.1,30.9,98,71,33,30.35,30.10,7,0,7,0.00
2012-11-24,61.3,51.2,36.8,45.2,37.1,30.7,93,61,33,30.27,30.08,9,0,9,0.00
2012-11-25,61.5,44.2,32.2,43.3,33.3,24.2,95,69,38,30.37,30.25,5,0,7,0.00
2012-11-26,69.1,47.4,30.6,44.3,33.1,24.6,98,67,20,30.42,30.30,4,0,4,0.00
2012-11-27,60.7,48.5,37.8,53.1,45.7,36.2,97,91,53,30.37,30.26,4,0,6,0.32
2012-11-28,59.2,49.5,34.3,50.9,43.6,33.0,97,82,51,30.56,30.32,7,0,9,0.00
2012-11-29,63.9,45.2,30.9,43.4,37.3,29.9,98,78,35,30.64,30.53,6,0,8,0.01
2012-11-30,69.6,51.1,37.6,50.6,44.4,36.6,98,81,49,30.57,30.46,3,0,4,0.00
2012-12-1,70.6,56.2,44.5,55.4,50.6,43.4,98,83,52,30.55,30.47,6,0,6,0.00
2012-12-2,75.6,60.2,49.1,60.8,54.7,48.0,97,84,55,30.54,30.44,5,0,9,0.00
2012-12-3,76.5,60.3,49.1,62.2,55.7,48.6,98,86,55,30.50,30.41,4,0,5,0.01
2012-12-4,74.6,62.9,54.1,61.6,57.8,52.8,97,85,59,30.52,30.41,7,0,7,0.00
2012-12-5,76.0,59.7,47.4,60.7,52.0,46.9,98,79,41,30.41,30.26,4,0,6,0.01
2012-12-6,68.1,57.1,51.3,53.4,50.7,42.5,98,80,59,30.36,30.28,7,0,10,0.00
2012-12-7,61.5,54.7,50.8,54.0,49.8,42.4,94,84,72,30.30,30.14,4,0,7,0.00
2012-12-8,68.8,57.3,47.9,57.1,53.1,47.4,98,87,62,30.26,30.17,4,0,5,0.00
2012-12-9,78.3,63.2,49.8,66.1,59.0,49.0,98,87,64,30.30,30.13,4,0,6,0.00
2012-12-10,75.8,65.8,59.8,65.8,61.4,57.8,98,87,61,30.15,29.94,10,0,10,0.00
2012-12-11,71.6,64.9,59.2,65.8,61.6,57.5,98,89,71,30.24,29.94,3,0,5,0.08
2012-12-12,59.5,52.4,44.8,58.1,50.9,43.7,97,95,91,30.37,30.22,10,0,10,0.53
2012-12-13,48.2,44.3,41.8,44.0,41.9,39.9,96,91,85,30.50,30.34,11,1,11,0.10
2012-12-14,60.9,47.7,38.8,44.6,40.7,36.7,93,79,48,30.54,30.39,5,0,6,0.01
2012-12-15,60.5,53.3,46.8,54.5,47.4,39.2,97,81,72,30.41,30.26,4,0,5,0.00
2012-12-16,73.5,62.2,52.3,63.0,58.1,51.8,99,88,66,30.28,30.06,6,0,10,0.00
2012-12-17,68.8,63.5,58.6,63.1,60.7,56.9,97,91,78,30.06,29.87,9,0,11,0.61
2012-12-18,66.8,58.6,43.9,59.6,46.8,33.0,97,69,30,30.17,29.92,13,1,19,0.00
2012-12-19,70.8,52.3,38.2,44.2,37.2,32.3,92,62,25,30.29,30.17,6,0,6,0.00
2012-12-20,73.0,57.1,38.0,64.3,51.0,37.0,98,82,54,30.29,29.81,17,2,20,0.17
2012-12-21,56.9,46.8,42.1,46.8,28.1,20.0,69,49,34,30.15,29.88,24,3,24,0.00
2012-12-22,57.3,44.2,35.5,25.5,20.4,14.8,53,40,20,30.35,30.15,9,1,11,0.00
2012-12-23,59.5,45.3,29.3,38.0,28.1,22.5,78,53,27,30.40,30.27,4,0,5,0.00
2012-12-24,63.4,52.7,42.2,52.2,41.2,33.8,90,67,35,30.30,30.09,8,0,9,0.01
2012-12-25,61.6,55.2,49.2,54.8,52.5,47.8,97,91,74,30.25,30.08,5,0,7,0.71
2012-12-26,67.3,58.4,42.8,64.7,51.1,31.5,98,78,52,30.09,29.68,15,2,19,0.48
2012-12-27,55.6,43.8,35.5,37.5,33.6,30.1,93,69,46,30.24,29.98,11,0,14,0.00
2012-12-28,58.6,45.5,32.7,47.1,40.5,31.4,96,84,58,30.32,30.08,3,0,4,0.00
2012-12-29,58.0,50.8,41.9,56.1,44.4,30.5,98,80,58,30.23,29.83,15,1,21,0.71
2012-12-30,51.6,40.0,28.8,31.5,27.3,20.2,92,63,31,30.61,30.22,10,0,11,0.00
2012-12-31,61.8,43.2,26.1,45.2,34.9,24.4,97,76,38,30.61,30.36,7,0,7,0.00
2013-1-1,66.9,56.8,46.8,57.0,50.4,44.0,94,80,62,30.36,30.11,6,0,6,0.00